createdAt,value
2023-03-01T00:00:09.872Z,4.50
2023-03-01T00:01:32.988Z,3.50
2023-03-01T00:02:55.932Z,4.20
2023-03-01T00:04:18.113Z,4.53
2023-03-01T00:05:47.871Z,4.20
2023-03-01T00:07:10.000Z,4.37
2023-03-01T00:08:33.764Z,4.40
2023-03-01T00:09:55.838Z,4.93
2023-03-01T00:11:26.347Z,3.97
2023-03-01T00:12:48.424Z,4.60
2023-03-01T00:14:10.520Z,4.07
2023-03-01T00:15:33.309Z,3.67
2023-03-01T00:16:55.430Z,3.47
2023-03-01T00:18:17.587Z,4.07
2023-03-01T00:19:39.680Z,4.27
2023-03-01T00:21:02.091Z,4.80
2023-03-01T00:22:24.429Z,4.10
2023-03-01T00:23:46.553Z,4.10
2023-03-01T00:25:08.939Z,4.23
2023-03-01T00:26:31.722Z,3.97
2023-03-01T00:27:53.977Z,4.53
2023-03-01T00:29:16.015Z,3.83
2023-03-01T00:30:38.238Z,3.63
2023-03-01T00:32:00.891Z,4.13
2023-03-01T00:33:23.054Z,3.63
2023-03-01T00:34:54.903Z,4.23
2023-03-01T00:36:17.325Z,4.07
2023-03-01T00:37:39.383Z,3.90
2023-03-01T00:39:02.069Z,4.10
2023-03-01T00:40:31.000Z,4.30
2023-03-01T00:41:53.014Z,4.40
2023-03-01T00:43:15.083Z,4.23
2023-03-01T00:44:37.127Z,3.87
2023-03-01T00:46:02.538Z,3.90
2023-03-01T00:47:24.613Z,4.30
2023-03-01T00:48:47.074Z,3.83
2023-03-01T00:50:10.076Z,3.70
2023-03-01T00:51:32.706Z,4.53
2023-03-01T00:52:56.573Z,4.07
2023-03-01T00:54:18.636Z,3.33
2023-03-01T00:55:40.654Z,3.50
2023-03-01T00:57:02.666Z,4.20
2023-03-01T00:58:24.976Z,3.83
2023-03-01T00:59:47.028Z,3.47
2023-03-01T01:01:17.980Z,3.70
2023-03-01T01:02:41.219Z,3.90
2023-03-01T01:04:06.356Z,3.63
2023-03-01T01:05:28.426Z,4.60
2023-03-01T01:06:50.424Z,3.17
2023-03-01T01:08:13.074Z,4.10
2023-03-01T01:09:35.267Z,4.13
2023-03-01T01:10:57.319Z,4.13
2023-03-01T01:12:19.393Z,3.97
2023-03-01T01:13:41.958Z,4.33
2023-03-01T01:15:04.277Z,4.90
2023-03-01T01:16:28.280Z,3.50
2023-03-01T01:17:50.461Z,4.20
2023-03-01T01:19:14.238Z,4.00
2023-03-01T01:20:36.548Z,4.97
2023-03-01T01:21:58.579Z,3.90
2023-03-01T01:23:20.645Z,4.10
2023-03-01T01:24:42.801Z,4.00
2023-03-01T01:26:27.830Z,4.23
2023-03-01T01:27:49.951Z,4.00
2023-03-01T01:29:12.841Z,3.83
2023-03-01T01:30:34.862Z,4.27
2023-03-01T01:31:56.902Z,3.80
2023-03-01T01:33:19.009Z,3.47
2023-03-01T01:34:41.115Z,4.23
2023-03-01T01:36:03.863Z,3.90
2023-03-01T01:37:31.996Z,4.30
2023-03-01T01:38:54.464Z,3.83
2023-03-01T01:40:16.815Z,4.13
2023-03-01T01:41:39.222Z,4.60
2023-03-01T01:43:01.417Z,3.90
2023-03-01T01:44:26.587Z,4.50
2023-03-01T01:45:49.242Z,4.53
2023-03-01T01:47:19.678Z,4.23
2023-03-01T01:48:45.971Z,4.43
2023-03-01T01:50:16.135Z,4.40
2023-03-01T01:51:41.444Z,4.60
2023-03-01T01:53:03.785Z,4.27
2023-03-01T01:54:45.518Z,4.77
2023-03-01T01:56:09.886Z,4.00
2023-03-01T01:57:37.261Z,3.97
2023-03-01T01:58:59.565Z,4.57
2023-03-01T02:00:24.527Z,4.50
2023-03-01T02:01:46.658Z,4.13
2023-03-01T02:03:18.282Z,3.63
2023-03-01T02:04:40.786Z,4.37
2023-03-01T02:06:14.496Z,5.00
2023-03-01T02:07:37.867Z,4.17
2023-03-01T02:09:05.788Z,3.90
2023-03-01T02:10:30.023Z,4.50
2023-03-01T02:11:52.978Z,4.27
2023-03-01T02:13:15.171Z,4.60
2023-03-01T02:14:37.243Z,4.70
2023-03-01T02:15:59.599Z,4.60
2023-03-01T02:17:22.364Z,4.00
2023-03-01T02:18:45.649Z,4.37
2023-03-01T02:20:20.092Z,5.00
2023-03-01T02:22:07.261Z,4.00
2023-03-01T02:23:30.249Z,4.53
2023-03-01T02:24:55.109Z,4.43
2023-03-01T02:26:43.206Z,4.73
2023-03-01T02:28:17.072Z,4.00
2023-03-01T02:29:39.696Z,4.53
2023-03-01T02:31:21.046Z,3.93
2023-03-01T02:32:43.491Z,4.03
2023-03-01T02:34:07.515Z,4.37
2023-03-01T02:35:39.204Z,4.60
2023-03-01T02:37:15.776Z,4.70
2023-03-01T02:38:37.841Z,4.70
2023-03-01T02:40:03.833Z,4.60
2023-03-01T02:41:29.320Z,4.60
2023-03-01T02:42:56.558Z,4.50
2023-03-01T02:44:18.996Z,4.00
2023-03-01T02:45:50.512Z,4.17
2023-03-01T02:47:12.536Z,4.07
2023-03-01T02:48:43.178Z,5.20
2023-03-01T02:50:34.828Z,5.07
2023-03-01T02:52:03.481Z,3.80
2023-03-01T02:54:07.036Z,3.40
2023-03-01T02:55:29.264Z,3.70
2023-03-01T02:56:51.814Z,4.23
2023-03-01T02:58:13.942Z,3.90
2023-03-01T02:59:40.360Z,3.53
2023-03-01T03:01:02.496Z,4.57
2023-03-01T03:02:39.694Z,4.10
2023-03-01T03:04:01.799Z,4.40
2023-03-01T03:05:27.478Z,4.30
2023-03-01T03:06:51.503Z,3.90
2023-03-01T03:08:13.594Z,3.93
2023-03-01T03:09:35.690Z,3.90
2023-03-01T03:10:57.722Z,4.03
2023-03-01T03:12:20.020Z,3.87
2023-03-01T03:13:48.983Z,4.60
2023-03-01T03:15:13.537Z,4.30
2023-03-01T03:16:35.646Z,4.73
2023-03-01T03:17:59.515Z,4.10
2023-03-01T03:19:21.727Z,3.90
2023-03-01T03:20:44.858Z,3.47
2023-03-01T03:22:06.864Z,3.10
2023-03-01T03:23:30.399Z,3.83
2023-03-01T03:24:52.418Z,4.00
2023-03-01T03:26:15.928Z,3.67
2023-03-01T03:27:39.253Z,4.03
2023-03-01T03:29:01.424Z,3.63
2023-03-01T03:30:26.178Z,3.90
2023-03-01T03:31:48.353Z,3.10
2023-03-01T03:33:14.886Z,4.67
2023-03-01T03:34:36.912Z,4.07
2023-03-01T03:35:59.140Z,3.63
2023-03-01T03:37:39.975Z,3.70
2023-03-01T03:39:02.011Z,3.43
2023-03-01T03:40:24.024Z,4.20
2023-03-01T03:41:46.068Z,3.50
2023-03-01T03:43:11.450Z,3.90
2023-03-01T03:44:33.472Z,4.10
2023-03-01T03:45:58.036Z,3.80
2023-03-01T03:47:20.234Z,4.60
2023-03-01T03:48:45.115Z,6.13
2023-03-01T03:50:07.531Z,4.70
2023-03-01T03:51:29.538Z,4.03
2023-03-01T03:52:51.611Z,4.20
2023-03-01T03:54:13.668Z,4.07
2023-03-01T03:55:40.001Z,3.13
2023-03-01T03:57:02.043Z,3.87
2023-03-01T03:58:25.426Z,3.53
2023-03-01T03:59:47.494Z,3.80
2023-03-01T04:01:09.590Z,4.40
2023-03-01T04:02:31.850Z,4.63
2023-03-01T04:03:55.385Z,5.23
2023-03-01T04:05:19.728Z,5.17
2023-03-01T04:06:41.773Z,4.23
2023-03-01T04:08:04.530Z,4.20
2023-03-01T04:09:26.578Z,3.50
2023-03-01T04:10:51.620Z,4.13
2023-03-01T04:12:13.689Z,4.20
2023-03-01T04:13:35.718Z,3.37
2023-03-01T04:14:57.786Z,4.27
2023-03-01T04:16:20.316Z,4.30
2023-03-01T04:17:47.554Z,4.27
2023-03-01T04:19:10.527Z,3.93
2023-03-01T04:20:35.741Z,3.97
2023-03-01T04:21:57.802Z,3.90
2023-03-01T04:23:21.621Z,4.30
2023-03-01T04:24:44.435Z,4.43
2023-03-01T04:26:06.476Z,4.60
2023-03-01T04:27:28.719Z,4.10
2023-03-01T04:28:51.582Z,4.23
2023-03-01T04:30:14.068Z,4.00
2023-03-01T04:31:36.378Z,4.30
2023-03-01T04:32:58.443Z,4.63
2023-03-01T04:34:20.680Z,3.73
2023-03-01T04:35:42.776Z,4.23
2023-03-01T04:37:04.831Z,3.87
2023-03-01T04:38:26.872Z,4.30
2023-03-01T04:39:48.972Z,4.93
2023-03-01T04:41:12.094Z,4.37
2023-03-01T04:42:34.162Z,3.83
2023-03-01T04:43:56.237Z,3.93
2023-03-01T04:45:18.449Z,3.63
2023-03-01T04:46:40.472Z,3.80
2023-03-01T04:48:02.781Z,4.17
2023-03-01T04:49:24.934Z,3.97
2023-03-01T04:50:47.022Z,4.00
2023-03-01T04:52:10.197Z,4.20
2023-03-01T04:53:33.395Z,3.53
2023-03-01T04:54:55.473Z,3.70
2023-03-01T04:56:20.883Z,4.00
2023-03-01T04:57:43.150Z,3.57
2023-03-01T04:59:06.652Z,4.13
2023-03-01T05:00:28.740Z,3.90
2023-03-01T05:01:51.779Z,3.57
2023-03-01T05:03:19.043Z,4.20
2023-03-01T05:04:41.204Z,4.00
2023-03-01T05:06:03.317Z,3.93
2023-03-01T05:07:25.847Z,4.90
2023-03-01T05:08:47.998Z,3.90
2023-03-01T05:10:10.663Z,3.40
2023-03-01T05:11:36.657Z,4.50
2023-03-01T05:12:59.784Z,3.33
2023-03-01T05:14:22.735Z,3.40
2023-03-01T05:15:44.794Z,3.97
2023-03-01T05:17:07.616Z,4.00
2023-03-01T05:18:31.685Z,3.40
2023-03-01T05:19:55.982Z,4.17
2023-03-01T05:21:18.173Z,4.13
2023-03-01T05:22:40.267Z,3.60
2023-03-01T05:24:02.954Z,3.80
2023-03-01T05:25:25.393Z,3.83
2023-03-01T05:26:49.182Z,5.30
2023-03-01T05:28:12.724Z,3.97
2023-03-01T05:29:35.958Z,4.17
2023-03-01T05:30:59.067Z,4.50
2023-03-01T05:32:21.745Z,4.73
2023-03-01T05:33:44.397Z,4.70
2023-03-01T05:35:06.915Z,3.90
2023-03-01T05:36:29.451Z,4.03
2023-03-01T05:37:52.334Z,4.20
2023-03-01T05:39:14.389Z,3.90
2023-03-01T05:40:36.760Z,4.27
2023-03-01T05:42:02.016Z,3.60
2023-03-01T05:43:24.033Z,3.73
2023-03-01T05:44:46.230Z,4.43
2023-03-01T05:46:12.148Z,4.37
2023-03-01T05:47:34.275Z,4.70
2023-03-01T05:48:57.342Z,4.33
2023-03-01T05:50:22.859Z,4.50
2023-03-01T05:51:49.786Z,3.90
2023-03-01T05:53:15.730Z,4.20
2023-03-01T05:54:38.035Z,4.90
2023-03-01T05:56:00.090Z,4.10
2023-03-01T05:57:22.094Z,5.87
2023-03-01T05:58:44.141Z,6.40
2023-03-01T06:00:07.312Z,6.47
2023-03-01T06:01:30.194Z,6.07
2023-03-01T06:02:55.090Z,6.03
2023-03-01T06:04:17.137Z,5.83
2023-03-01T06:05:40.476Z,5.70
2023-03-01T06:07:02.590Z,5.60
2023-03-01T06:08:25.551Z,5.40
2023-03-01T06:09:47.568Z,5.80
2023-03-01T06:11:10.389Z,5.97
2023-03-01T06:12:37.101Z,6.50
2023-03-01T06:13:59.096Z,6.00
2023-03-01T06:15:21.731Z,6.27
2023-03-01T06:16:43.764Z,6.07
2023-03-01T06:18:05.795Z,5.90
2023-03-01T06:19:27.938Z,5.57
2023-03-01T06:20:58.799Z,5.40
2023-03-01T06:22:20.823Z,5.23
2023-03-01T06:23:42.840Z,4.70
2023-03-01T06:25:05.906Z,4.20
2023-03-01T06:26:27.955Z,4.27
2023-03-01T06:27:50.399Z,4.63
2023-03-01T06:29:12.536Z,5.87
2023-03-01T06:30:34.592Z,6.17
2023-03-01T06:31:56.635Z,6.20
2023-03-01T06:33:21.028Z,5.33
2023-03-01T06:34:43.084Z,5.20
2023-03-01T06:36:05.441Z,4.67
2023-03-01T06:37:27.544Z,5.20
2023-03-01T06:38:49.594Z,4.90
2023-03-01T06:40:12.846Z,5.50
2023-03-01T06:41:34.912Z,5.30
2023-03-01T06:42:56.961Z,5.27
2023-03-01T06:44:18.987Z,4.80
2023-03-01T06:45:41.020Z,4.80
2023-03-01T06:47:04.204Z,4.97
2023-03-01T06:48:26.277Z,4.50
2023-03-01T06:49:48.300Z,4.70
2023-03-01T06:51:10.409Z,4.67
2023-03-01T06:52:32.673Z,3.77
2023-03-01T06:53:54.688Z,4.80
2023-03-01T06:55:16.811Z,4.00
2023-03-01T06:56:39.194Z,3.80
2023-03-01T06:58:02.813Z,4.17
2023-03-01T06:59:24.843Z,4.20
2023-03-01T07:00:46.890Z,3.70
2023-03-01T07:02:12.638Z,4.03
2023-03-01T07:03:34.762Z,4.13
2023-03-01T07:04:56.798Z,3.73
2023-03-01T07:06:18.922Z,3.83
2023-03-01T07:07:41.029Z,3.67
2023-03-01T07:09:03.415Z,4.57
2023-03-01T07:10:25.586Z,4.83
2023-03-01T07:11:47.930Z,4.73
2023-03-01T07:13:10.025Z,3.83
2023-03-01T07:14:32.069Z,5.33
2023-03-01T07:15:54.204Z,4.87
2023-03-01T07:17:16.396Z,4.23
2023-03-01T07:18:38.463Z,4.40
2023-03-01T07:20:00.469Z,4.70
2023-03-01T07:21:22.530Z,5.10
2023-03-01T07:22:44.640Z,4.70
2023-03-01T07:24:08.350Z,5.50
2023-03-01T07:25:30.428Z,5.00
2023-03-01T07:26:54.363Z,5.70
2023-03-01T07:28:16.379Z,5.57
2023-03-01T07:29:38.668Z,6.30
2023-03-01T07:31:04.251Z,4.80
2023-03-01T07:32:26.382Z,5.43
2023-03-01T07:33:48.467Z,5.20
2023-03-01T07:35:10.571Z,5.50
2023-03-01T07:36:32.940Z,4.50
2023-03-01T07:37:55.216Z,4.80
2023-03-01T07:39:18.726Z,5.07
2023-03-01T07:40:41.779Z,4.80
2023-03-01T07:42:03.930Z,5.03
2023-03-01T07:43:25.994Z,4.40
2023-03-01T07:44:48.064Z,5.93
2023-03-01T07:46:10.647Z,5.63
2023-03-01T07:47:33.212Z,5.60
2023-03-01T07:48:55.314Z,4.50
2023-03-01T07:50:17.578Z,5.57
2023-03-01T07:51:39.731Z,5.27
2023-03-01T07:53:01.788Z,5.03
2023-03-01T07:54:24.094Z,5.40
2023-03-01T07:55:46.145Z,5.17
2023-03-01T07:57:08.155Z,7.60
2023-03-01T07:58:30.278Z,5.00
2023-03-01T07:59:52.355Z,5.93
2023-03-01T08:01:17.330Z,5.60
2023-03-01T08:02:41.334Z,5.30
2023-03-01T08:04:03.450Z,4.90
2023-03-01T08:05:25.560Z,5.03
2023-03-01T08:06:47.672Z,4.27
2023-03-01T08:08:09.695Z,4.27
2023-03-01T08:09:31.861Z,4.77
2023-03-01T08:10:57.219Z,5.47
2023-03-01T08:12:19.574Z,7.30
2023-03-01T08:13:42.387Z,7.23
2023-03-01T08:15:05.052Z,10.30
2023-03-01T08:16:27.138Z,6.43
2023-03-01T08:17:50.701Z,5.80
2023-03-01T08:19:16.483Z,5.90
2023-03-01T08:20:38.594Z,8.00
2023-03-01T08:22:00.842Z,6.03
2023-03-01T08:23:23.012Z,5.63
2023-03-01T08:24:45.197Z,6.90
2023-03-01T08:26:13.056Z,6.60
2023-03-01T08:27:35.161Z,7.17
2023-03-01T08:28:57.315Z,7.80
2023-03-01T08:30:19.538Z,11.10
2023-03-01T08:31:42.045Z,8.27
2023-03-01T08:33:04.246Z,8.70
2023-03-01T08:34:26.876Z,8.70
2023-03-01T08:35:49.023Z,10.27
2023-03-01T08:37:11.232Z,9.70
2023-03-01T08:38:34.442Z,10.67
2023-03-01T08:39:56.555Z,11.37
2023-03-01T08:41:19.281Z,11.50
2023-03-01T08:42:45.889Z,11.37
2023-03-01T08:44:08.503Z,12.00
2023-03-01T08:45:30.642Z,11.13
2023-03-01T08:46:54.138Z,10.40
2023-03-01T08:48:16.183Z,11.40
2023-03-01T08:49:38.290Z,10.37
2023-03-01T08:51:16.170Z,9.20
2023-03-01T08:52:38.287Z,11.33
2023-03-01T08:54:00.436Z,11.17
2023-03-01T08:55:22.542Z,10.43
2023-03-01T08:56:45.557Z,11.73
2023-03-01T08:58:07.631Z,10.90
2023-03-01T08:59:30.834Z,9.87
2023-03-01T09:00:52.884Z,11.37
2023-03-01T09:02:19.978Z,10.67
2023-03-01T09:03:42.167Z,12.50
2023-03-01T09:05:04.420Z,11.90
2023-03-01T09:06:26.587Z,10.63
2023-03-01T09:07:48.643Z,10.00
2023-03-01T09:09:17.414Z,11.47
2023-03-01T09:10:40.463Z,10.03
2023-03-01T09:12:02.776Z,11.80
2023-03-01T09:13:25.806Z,10.47
2023-03-01T09:14:47.957Z,11.03
2023-03-01T09:16:12.103Z,10.40
2023-03-01T09:17:34.190Z,9.70
2023-03-01T09:18:56.645Z,10.40
2023-03-01T09:20:18.742Z,10.17
2023-03-01T09:21:41.550Z,11.50
2023-03-01T09:23:03.692Z,10.00
2023-03-01T09:24:25.960Z,10.93
2023-03-01T09:25:48.150Z,10.33
2023-03-01T09:27:10.690Z,9.70
2023-03-01T09:28:32.906Z,9.17
2023-03-01T09:29:57.401Z,9.27
2023-03-01T09:31:21.771Z,9.23
2023-03-01T09:32:45.708Z,8.80
2023-03-01T09:34:08.606Z,9.17
2023-03-01T09:35:31.054Z,9.60
2023-03-01T09:36:53.539Z,8.77
2023-03-01T09:38:15.681Z,10.33
2023-03-01T09:39:37.971Z,9.67
2023-03-01T09:41:01.538Z,10.10
2023-03-01T09:42:23.701Z,10.03
2023-03-01T09:43:56.513Z,10.00
2023-03-01T09:45:43.436Z,9.60
2023-03-01T09:47:06.351Z,10.90
2023-03-01T09:48:34.209Z,10.70
2023-03-01T09:50:17.948Z,11.00
2023-03-01T09:51:40.239Z,10.70
2023-03-01T09:53:16.780Z,11.10
2023-03-01T09:54:39.031Z,10.30
2023-03-01T09:56:14.630Z,11.60
2023-03-01T09:57:44.331Z,10.33
2023-03-01T09:59:15.564Z,11.47
2023-03-01T10:00:43.493Z,11.00
2023-03-01T10:02:37.456Z,10.83
2023-03-01T10:04:29.767Z,10.40
2023-03-01T10:06:05.788Z,10.60
2023-03-01T10:07:41.759Z,10.17
2023-03-01T10:09:22.448Z,10.30
2023-03-01T10:10:47.168Z,10.70
2023-03-01T10:12:11.810Z,11.00
2023-03-01T10:14:02.461Z,11.63
2023-03-01T10:15:40.362Z,10.50
2023-03-01T10:17:27.918Z,10.93
2023-03-01T10:18:59.360Z,11.83
2023-03-01T10:20:28.209Z,11.00
2023-03-01T10:21:51.818Z,11.20
2023-03-01T10:23:13.939Z,11.77
2023-03-01T10:24:37.210Z,10.83
2023-03-01T10:26:10.321Z,11.10
2023-03-01T10:27:38.473Z,12.07
2023-03-01T10:29:12.242Z,11.03
2023-03-01T10:30:40.322Z,11.80
2023-03-01T10:32:05.787Z,12.13
2023-03-01T10:33:32.184Z,11.47
2023-03-01T10:34:54.310Z,11.60
2023-03-01T10:36:16.372Z,11.00
2023-03-01T10:38:04.054Z,12.27
2023-03-01T10:39:27.596Z,11.37
2023-03-01T10:40:55.444Z,11.97
2023-03-01T10:42:33.367Z,11.60
2023-03-01T10:43:57.906Z,11.60
2023-03-01T10:45:40.249Z,12.13
2023-03-01T10:47:02.583Z,10.53
2023-03-01T10:48:29.252Z,11.03
2023-03-01T10:50:06.639Z,11.43
2023-03-01T10:51:28.892Z,12.37
2023-03-01T10:52:59.849Z,10.80
2023-03-01T10:54:33.538Z,12.33
2023-03-01T10:56:02.523Z,12.73
2023-03-01T10:57:33.632Z,12.23
2023-03-01T10:59:00.426Z,11.23
2023-03-01T11:00:27.175Z,11.20
2023-03-01T11:02:26.206Z,12.57
2023-03-01T11:04:07.075Z,10.40
2023-03-01T11:05:31.304Z,10.37
2023-03-01T11:07:00.453Z,12.50
2023-03-01T11:08:50.108Z,11.10
2023-03-01T11:10:26.608Z,12.37
2023-03-01T11:11:56.973Z,10.20
2023-03-01T11:13:20.628Z,10.13
2023-03-01T11:14:54.331Z,11.43
2023-03-01T11:16:28.288Z,10.00
2023-03-01T11:17:56.961Z,10.97
2023-03-01T11:19:22.584Z,11.47
2023-03-01T11:20:44.887Z,10.83
2023-03-01T11:22:14.088Z,11.50
2023-03-01T11:23:40.601Z,12.10
2023-03-01T11:25:10.377Z,11.40
2023-03-01T11:26:37.222Z,9.70
2023-03-01T11:28:00.580Z,11.20
2023-03-01T11:29:29.680Z,10.20
2023-03-01T11:31:07.589Z,10.73
2023-03-01T11:32:39.725Z,10.40
2023-03-01T11:34:13.522Z,11.57
2023-03-01T11:35:43.200Z,13.00
2023-03-01T11:37:30.387Z,11.60
2023-03-01T11:38:54.795Z,12.07
2023-03-01T11:40:26.086Z,13.10
2023-03-01T11:41:54.040Z,13.30
2023-03-01T11:43:16.083Z,13.10
2023-03-01T11:44:41.269Z,12.57
2023-03-01T11:46:34.484Z,13.87
2023-03-01T11:48:06.386Z,13.00
2023-03-01T11:49:37.126Z,12.03
2023-03-01T11:51:06.519Z,13.80
2023-03-01T11:52:50.479Z,15.30
2023-03-01T11:54:35.559Z,13.60
2023-03-01T11:56:33.773Z,12.80
2023-03-01T11:58:42.135Z,13.53
2023-03-01T12:00:18.422Z,11.90
2023-03-01T12:02:19.288Z,12.67
2023-03-01T12:04:14.795Z,13.73
2023-03-01T12:06:04.745Z,13.40
2023-03-01T12:07:32.849Z,12.30
2023-03-01T12:09:15.497Z,13.23
2023-03-01T12:10:48.704Z,12.80
2023-03-01T12:12:29.773Z,12.20
2023-03-01T12:14:06.426Z,13.20
2023-03-01T12:15:53.005Z,12.30
2023-03-01T12:17:45.630Z,12.10
2023-03-01T12:19:44.116Z,10.80
2023-03-01T12:21:20.774Z,8.20
2023-03-01T12:23:19.743Z,7.90
2023-03-01T12:25:07.101Z,6.97
2023-03-01T12:26:42.809Z,7.83
2023-03-01T12:28:13.745Z,5.80
2023-03-01T12:29:43.341Z,7.83
2023-03-01T12:31:11.665Z,6.50
2023-03-01T12:32:58.816Z,6.50
2023-03-01T12:34:50.571Z,7.10
2023-03-01T12:36:33.222Z,6.70
2023-03-01T12:38:12.336Z,8.87
2023-03-01T12:39:55.890Z,7.77
2023-03-01T12:41:38.795Z,8.40
2023-03-01T12:43:19.653Z,9.40
2023-03-01T12:45:14.137Z,7.50
2023-03-01T12:47:00.814Z,8.13
2023-03-01T12:48:52.215Z,7.97
2023-03-01T12:50:22.403Z,7.77
2023-03-01T12:51:56.828Z,7.80
2023-03-01T12:53:27.071Z,8.63
2023-03-01T12:54:52.795Z,7.70
2023-03-01T12:56:27.515Z,8.30
2023-03-01T12:58:19.409Z,9.50
2023-03-01T13:00:10.648Z,10.37
2023-03-01T13:01:36.439Z,9.80
2023-03-01T13:03:08.019Z,10.67
2023-03-01T13:04:30.166Z,10.70
2023-03-01T13:06:43.336Z,12.33
2023-03-01T13:08:20.461Z,11.50
2023-03-01T13:09:55.424Z,10.70
2023-03-01T13:11:21.669Z,11.37
2023-03-01T13:12:49.356Z,11.30
2023-03-01T13:14:26.446Z,11.33
2023-03-01T13:15:49.722Z,11.60
2023-03-01T13:17:32.590Z,11.47
2023-03-01T13:19:09.393Z,12.37
2023-03-01T13:20:51.848Z,12.10
2023-03-01T13:22:35.500Z,12.77
2023-03-01T13:23:58.684Z,13.73
2023-03-01T13:25:21.478Z,13.43
2023-03-01T13:27:16.037Z,14.80
2023-03-01T13:28:51.074Z,15.93
2023-03-01T13:30:34.742Z,17.10
2023-03-01T13:31:58.160Z,17.93
2023-03-01T13:33:29.233Z,17.20
2023-03-01T13:34:53.854Z,17.57
2023-03-01T13:36:32.571Z,18.80
2023-03-01T13:38:33.320Z,17.70
2023-03-01T13:39:55.411Z,17.90
2023-03-01T13:41:38.889Z,17.00
2023-03-01T13:43:28.414Z,19.57
2023-03-01T13:44:50.564Z,17.70
2023-03-01T13:46:22.771Z,18.33
2023-03-01T13:47:48.117Z,18.20
2023-03-01T13:49:15.236Z,18.47
2023-03-01T13:51:04.441Z,19.03
2023-03-01T13:52:45.351Z,17.57
2023-03-01T13:54:13.386Z,17.13
2023-03-01T13:55:43.404Z,16.87
2023-03-01T13:57:05.607Z,17.97
2023-03-01T13:58:27.628Z,18.90
2023-03-01T13:59:49.683Z,16.70
2023-03-01T14:01:33.096Z,18.60
2023-03-01T14:03:06.147Z,18.87
2023-03-01T14:04:32.449Z,17.30
2023-03-01T14:06:15.650Z,18.17
2023-03-01T14:07:42.274Z,17.27
2023-03-01T14:09:27.047Z,18.20
2023-03-01T14:11:14.981Z,19.03
2023-03-01T14:13:08.316Z,17.87
2023-03-01T14:14:51.667Z,18.57
2023-03-01T14:16:33.727Z,19.90
2023-03-01T14:17:58.791Z,17.50
2023-03-01T14:19:34.584Z,23.20
2023-03-01T14:20:56.819Z,21.00
2023-03-01T14:22:35.239Z,20.53
2023-03-01T14:23:58.842Z,17.63
2023-03-01T14:25:27.064Z,19.20
2023-03-01T14:26:50.984Z,19.83
2023-03-01T14:28:20.556Z,19.20
2023-03-01T14:29:42.644Z,18.57
2023-03-01T14:31:26.074Z,19.60
2023-03-01T14:32:55.152Z,20.03
2023-03-01T14:34:26.031Z,18.77
2023-03-01T14:36:00.213Z,18.10
2023-03-01T14:37:34.505Z,20.00
2023-03-01T14:38:59.324Z,18.00
2023-03-01T14:40:30.245Z,18.23
2023-03-01T14:41:53.209Z,20.50
2023-03-01T14:43:21.358Z,18.73
2023-03-01T14:44:45.858Z,20.83
2023-03-01T14:46:17.679Z,18.47
2023-03-01T14:47:41.208Z,19.10
2023-03-01T14:49:26.896Z,20.57
2023-03-01T14:50:51.103Z,19.70
2023-03-01T14:52:23.051Z,19.57
2023-03-01T14:53:51.040Z,19.93
2023-03-01T14:55:20.974Z,22.50
2023-03-01T14:56:48.315Z,21.00
2023-03-01T14:58:16.488Z,19.67
2023-03-01T14:59:38.508Z,21.00
2023-03-01T15:01:04.063Z,22.30
2023-03-01T15:02:28.946Z,20.53
2023-03-01T15:03:52.186Z,21.10
2023-03-01T15:05:16.666Z,20.40
2023-03-01T15:06:39.668Z,20.53
2023-03-01T15:08:04.580Z,21.20
2023-03-01T15:09:26.849Z,20.30
2023-03-01T15:11:23.760Z,18.47
2023-03-01T15:12:45.932Z,19.33
2023-03-01T15:14:28.253Z,19.07
2023-03-01T15:16:02.168Z,21.40
2023-03-01T15:17:35.337Z,20.37
2023-03-01T15:18:59.079Z,19.17
2023-03-01T15:20:26.758Z,19.50
2023-03-01T15:21:50.907Z,19.77
2023-03-01T15:23:28.444Z,19.00
2023-03-01T15:24:51.345Z,20.00
2023-03-01T15:26:24.249Z,20.10
2023-03-01T15:27:47.853Z,19.90
2023-03-01T15:29:18.885Z,20.90
2023-03-01T15:30:40.956Z,19.70
2023-03-01T15:32:25.916Z,18.77
2023-03-01T15:33:48.564Z,19.67
2023-03-01T15:35:49.180Z,20.90
2023-03-01T15:37:45.733Z,20.53
2023-03-01T15:39:38.104Z,20.63
2023-03-01T15:41:06.098Z,20.70
2023-03-01T15:42:28.074Z,20.80
2023-03-01T15:43:51.446Z,20.17
2023-03-01T15:45:21.575Z,20.83
2023-03-01T15:46:48.015Z,21.27
2023-03-01T15:48:21.017Z,22.63
2023-03-01T15:49:54.811Z,21.20
2023-03-01T15:51:17.662Z,21.60
2023-03-01T15:52:43.720Z,20.17
2023-03-01T15:54:17.467Z,20.97
2023-03-01T15:55:39.505Z,21.47
2023-03-01T15:57:01.603Z,20.63
2023-03-01T15:58:25.351Z,20.50
2023-03-01T15:59:47.823Z,22.20
2023-03-01T16:01:17.860Z,21.90
2023-03-01T16:02:41.666Z,20.93
2023-03-01T16:04:03.853Z,20.57
2023-03-01T16:05:31.468Z,20.67
2023-03-01T16:06:57.364Z,22.65
2023-03-01T16:08:20.079Z,22.23
2023-03-01T16:09:42.829Z,21.73
2023-03-01T16:11:10.688Z,20.80
2023-03-01T16:12:32.829Z,22.30
2023-03-01T16:13:55.078Z,21.07
2023-03-01T16:15:25.921Z,20.33
2023-03-01T16:16:49.021Z,23.30
2023-03-01T16:18:12.501Z,21.73
2023-03-01T16:19:35.763Z,21.63
2023-03-01T16:20:57.808Z,22.27
2023-03-01T16:22:25.650Z,20.70
2023-03-01T16:23:47.876Z,25.80
2023-03-01T16:25:14.875Z,21.70
2023-03-01T16:26:38.639Z,22.20
2023-03-01T16:28:05.748Z,21.93
2023-03-01T16:29:30.064Z,23.57
2023-03-01T16:30:52.381Z,22.90
2023-03-01T16:32:14.705Z,22.37
2023-03-01T16:33:37.662Z,22.93
2023-03-01T16:34:59.870Z,25.57
2023-03-01T16:36:24.678Z,23.33
2023-03-01T16:37:47.430Z,25.60
2023-03-01T16:39:10.446Z,25.33
2023-03-01T16:40:32.545Z,25.80
2023-03-01T16:41:54.651Z,27.50
2023-03-01T16:43:16.811Z,24.93
2023-03-01T16:44:39.006Z,24.70
2023-03-01T16:46:01.156Z,24.90
2023-03-01T16:47:23.743Z,23.93
2023-03-01T16:48:47.101Z,24.80
2023-03-01T16:50:10.090Z,24.93
2023-03-01T16:51:32.664Z,25.10
2023-03-01T16:52:54.922Z,24.40
2023-03-01T16:54:16.958Z,24.80
2023-03-01T16:55:46.181Z,25.70
2023-03-01T16:57:08.337Z,26.20
2023-03-01T16:58:30.485Z,25.87
2023-03-01T16:59:54.553Z,24.53
2023-03-01T17:01:19.852Z,23.70
2023-03-01T17:02:42.852Z,22.40
2023-03-01T17:04:05.152Z,20.87
2023-03-01T17:05:27.207Z,21.17
2023-03-01T17:06:49.520Z,19.83
2023-03-01T17:08:11.579Z,20.30
2023-03-01T17:09:38.109Z,22.37
2023-03-01T17:11:14.029Z,23.67
2023-03-01T17:12:36.458Z,24.63
2023-03-01T17:13:58.517Z,23.50
2023-03-01T17:15:20.607Z,25.03
2023-03-01T17:16:43.291Z,25.00
2023-03-01T17:18:05.729Z,25.20
2023-03-01T17:19:28.580Z,24.60
2023-03-01T17:20:50.647Z,25.10
2023-03-01T17:22:14.009Z,24.57
2023-03-01T17:23:37.780Z,25.70
2023-03-01T17:24:59.872Z,23.43
2023-03-01T17:26:21.974Z,22.50
2023-03-01T17:27:44.073Z,25.40
2023-03-01T17:29:06.793Z,23.50
2023-03-01T17:30:28.971Z,22.00
2023-03-01T17:31:51.301Z,25.00
2023-03-01T17:33:14.297Z,22.80
2023-03-01T17:34:37.682Z,22.90
2023-03-01T17:36:00.679Z,23.90
2023-03-01T17:37:23.176Z,23.00
2023-03-01T17:38:46.284Z,22.73
2023-03-01T17:40:09.110Z,22.30
2023-03-01T17:41:31.467Z,23.00
2023-03-01T17:42:53.832Z,22.90
2023-03-01T17:44:16.111Z,23.10
2023-03-01T17:45:39.593Z,24.47
2023-03-01T17:47:03.246Z,24.37
2023-03-01T17:48:25.914Z,24.60
2023-03-01T17:49:48.110Z,24.40
2023-03-01T17:51:11.899Z,23.40
2023-03-01T17:52:34.119Z,23.43
2023-03-01T17:53:56.177Z,25.13
2023-03-01T17:55:18.323Z,23.10
2023-03-01T17:56:42.202Z,25.80
2023-03-01T17:58:06.151Z,22.90
2023-03-01T17:59:31.256Z,21.92
2023-03-01T18:00:53.348Z,23.13
2023-03-01T18:02:15.528Z,21.13
2023-03-01T18:03:37.939Z,20.10
2023-03-01T18:05:00.127Z,22.03
2023-03-01T18:06:27.890Z,20.33
2023-03-01T18:07:52.054Z,22.10
2023-03-01T18:09:14.700Z,24.13
2023-03-01T18:10:37.512Z,28.47
2023-03-01T18:11:59.590Z,21.77
2023-03-01T18:13:21.698Z,24.87
2023-03-01T18:14:43.819Z,23.00
2023-03-01T18:16:07.797Z,21.83
2023-03-01T18:17:29.834Z,20.47
2023-03-01T18:18:56.336Z,20.90
2023-03-01T18:20:19.319Z,22.10
2023-03-01T18:21:41.533Z,20.70
2023-03-01T18:23:03.670Z,23.00
2023-03-01T18:24:25.934Z,21.23
2023-03-01T18:25:48.358Z,23.60
2023-03-01T18:27:10.622Z,26.50
2023-03-01T18:28:33.654Z,26.20
2023-03-01T18:29:56.395Z,23.00
2023-03-01T18:31:22.280Z,25.00
2023-03-01T18:32:45.112Z,22.47
2023-03-01T18:34:07.211Z,24.07
2023-03-01T18:35:31.455Z,25.10
2023-03-01T18:37:08.812Z,19.90
2023-03-01T18:38:31.530Z,18.70
2023-03-01T18:39:54.424Z,19.57
2023-03-01T18:41:16.875Z,20.57
2023-03-01T18:42:38.935Z,18.80
2023-03-01T18:44:02.237Z,19.93
2023-03-01T18:45:24.394Z,19.20
2023-03-01T18:46:46.572Z,17.33
2023-03-01T18:48:08.786Z,16.13
2023-03-01T18:49:30.924Z,16.70
2023-03-01T18:50:53.157Z,15.47
2023-03-01T18:52:15.326Z,16.87
2023-03-01T18:53:37.601Z,17.83
2023-03-01T18:54:59.867Z,18.93
2023-03-01T18:56:22.010Z,18.50